sensor_id;sensor_type;location;lat;lon;timestamp;P1;durP1;ratioP1;P2;durP2;ratioP2
72637;SDS011;60681;50.308;8.972;2022-08-24T00:01:29;1.73;;;0.88;;
72637;SDS011;60681;50.308;8.972;2022-08-24T00:03:55;3.95;;;0.77;;
72637;SDS011;60681;50.308;8.972;2022-08-24T00:06:22;3.30;;;1.02;;
72637;SDS011;60681;50.308;8.972;2022-08-24T00:08:50;1.17;;;0.65;;
72637;SDS011;60681;50.308;8.972;2022-08-24T00:11:16;5.78;;;1.35;;
72637;SDS011;60681;50.308;8.972;2022-08-24T00:13:42;0.63;;;0.63;;
72637;SDS011;60681;50.308;8.972;2022-08-24T00:16:09;0.82;;;0.82;;
72637;SDS011;60681;50.308;8.972;2022-08-24T00:18:35;1.42;;;1.08;;
72637;SDS011;60681;50.308;8.972;2022-08-24T00:21:01;3.10;;;0.88;;
72637;SDS011;60681;50.308;8.972;2022-08-24T00:23:28;3.35;;;0.80;;
72637;SDS011;60681;50.308;8.972;2022-08-24T00:25:55;0.68;;;0.68;;
72637;SDS011;60681;50.308;8.972;2022-08-24T00:28:21;2.38;;;0.95;;
72637;SDS011;60681;50.308;8.972;2022-08-24T00:30:47;1.60;;;0.85;;
72637;SDS011;60681;50.308;8.972;2022-08-24T00:33:13;1.15;;;0.98;;
72637;SDS011;60681;50.308;8.972;2022-08-24T00:35:39;1.77;;;1.00;;
72637;SDS011;60681;50.308;8.972;2022-08-24T00:38:05;1.52;;;0.88;;
72637;SDS011;60681;50.308;8.972;2022-08-24T00:40:33;1.70;;;0.80;;
72637;SDS011;60681;50.308;8.972;2022-08-24T00:43:00;1.10;;;1.00;;
72637;SDS011;60681;50.308;8.972;2022-08-24T00:45:33;0.70;;;0.65;;
72637;SDS011;60681;50.308;8.972;2022-08-24T00:48:00;0.95;;;0.93;;
72637;SDS011;60681;50.308;8.972;2022-08-24T00:50:41;1.20;;;1.10;;
72637;SDS011;60681;50.308;8.972;2022-08-24T00:53:13;2.05;;;0.95;;
72637;SDS011;60681;50.308;8.972;2022-08-24T00:55:47;2.00;;;0.95;;
72637;SDS011;60681;50.308;8.972;2022-08-24T00:58:17;1.60;;;0.88;;
72637;SDS011;60681;50.308;8.972;2022-08-24T01:00:49;2.50;;;0.93;;
72637;SDS011;60681;50.308;8.972;2022-08-24T01:03:16;0.80;;;0.80;;
72637;SDS011;60681;50.308;8.972;2022-08-24T01:05:42;0.73;;;0.73;;
72637;SDS011;60681;50.308;8.972;2022-08-24T01:08:10;1.35;;;1.15;;
72637;SDS011;60681;50.308;8.972;2022-08-24T01:10:40;1.92;;;0.90;;
72637;SDS011;60681;50.308;8.972;2022-08-24T01:13:08;2.30;;;1.08;;
72637;SDS011;60681;50.308;8.972;2022-08-24T01:18:02;3.72;;;1.20;;
72637;SDS011;60681;50.308;8.972;2022-08-24T01:20:48;5.95;;;1.92;;
72637;SDS011;60681;50.308;8.972;2022-08-24T01:23:37;4.68;;;1.10;;
72637;SDS011;60681;50.308;8.972;2022-08-24T01:26:04;5.35;;;1.02;;
72637;SDS011;60681;50.308;8.972;2022-08-24T01:28:31;1.00;;;1.00;;
72637;SDS011;60681;50.308;8.972;2022-08-24T01:30:57;1.15;;;1.10;;
72637;SDS011;60681;50.308;8.972;2022-08-24T01:33:27;2.53;;;1.10;;
72637;SDS011;60681;50.308;8.972;2022-08-24T01:35:56;4.32;;;1.73;;
72637;SDS011;60681;50.308;8.972;2022-08-24T01:38:23;1.88;;;1.15;;
72637;SDS011;60681;50.308;8.972;2022-08-24T01:40:51;3.40;;;0.98;;
72637;SDS011;60681;50.308;8.972;2022-08-24T01:43:17;1.88;;;1.10;;
72637;SDS011;60681;50.308;8.972;2022-08-24T01:45:43;7.25;;;1.33;;
72637;SDS011;60681;50.308;8.972;2022-08-24T01:48:12;1.55;;;1.10;;
72637;SDS011;60681;50.308;8.972;2022-08-24T01:50:39;1.02;;;1.00;;
72637;SDS011;60681;50.308;8.972;2022-08-24T01:53:05;1.90;;;1.23;;
72637;SDS011;60681;50.308;8.972;2022-08-24T01:55:31;1.50;;;1.02;;
72637;SDS011;60681;50.308;8.972;2022-08-24T01:57:58;3.25;;;1.20;;
72637;SDS011;60681;50.308;8.972;2022-08-24T02:00:24;2.20;;;1.15;;
72637;SDS011;60681;50.308;8.972;2022-08-24T02:02:51;5.22;;;1.38;;
72637;SDS011;60681;50.308;8.972;2022-08-24T02:05:17;2.38;;;1.00;;
72637;SDS011;60681;50.308;8.972;2022-08-24T02:07:43;2.78;;;0.98;;
72637;SDS011;60681;50.308;8.972;2022-08-24T02:10:10;2.40;;;1.20;;
72637;SDS011;60681;50.308;8.972;2022-08-24T02:12:37;1.80;;;0.90;;
72637;SDS011;60681;50.308;8.972;2022-08-24T02:15:04;0.90;;;0.90;;
72637;SDS011;60681;50.308;8.972;2022-08-24T02:19:58;1.25;;;1.10;;
72637;SDS011;60681;50.308;8.972;2022-08-24T02:22:25;3.20;;;1.33;;
72637;SDS011;60681;50.308;8.972;2022-08-24T02:24:51;2.47;;;1.40;;
72637;SDS011;60681;50.308;8.972;2022-08-24T02:27:17;3.53;;;1.10;;
72637;SDS011;60681;50.308;8.972;2022-08-24T02:29:43;2.25;;;0.98;;
72637;SDS011;60681;50.308;8.972;2022-08-24T02:32:09;2.80;;;1.20;;
72637;SDS011;60681;50.308;8.972;2022-08-24T02:34:36;1.20;;;0.93;;
72637;SDS011;60681;50.308;8.972;2022-08-24T02:37:02;1.85;;;1.70;;
72637;SDS011;60681;50.308;8.972;2022-08-24T02:39:28;4.00;;;1.00;;
72637;SDS011;60681;50.308;8.972;2022-08-24T02:41:55;1.23;;;0.88;;
72637;SDS011;60681;50.308;8.972;2022-08-24T02:44:21;0.88;;;0.88;;
72637;SDS011;60681;50.308;8.972;2022-08-24T02:46:47;1.73;;;1.20;;
72637;SDS011;60681;50.308;8.972;2022-08-24T02:49:13;2.78;;;1.40;;
72637;SDS011;60681;50.308;8.972;2022-08-24T02:51:41;1.80;;;1.52;;
72637;SDS011;60681;50.308;8.972;2022-08-24T02:54:08;2.42;;;1.00;;
72637;SDS011;60681;50.308;8.972;2022-08-24T02:56:34;4.32;;;1.33;;
72637;SDS011;60681;50.308;8.972;2022-08-24T02:59:00;1.30;;;1.20;;
72637;SDS011;60681;50.308;8.972;2022-08-24T03:01:27;2.72;;;1.23;;
72637;SDS011;60681;50.308;8.972;2022-08-24T03:03:53;2.30;;;1.40;;
72637;SDS011;60681;50.308;8.972;2022-08-24T03:06:20;5.68;;;1.55;;
72637;SDS011;60681;50.308;8.972;2022-08-24T03:08:46;3.83;;;1.10;;
72637;SDS011;60681;50.308;8.972;2022-08-24T03:11:12;1.58;;;1.45;;
72637;SDS011;60681;50.308;8.972;2022-08-24T03:13:39;1.48;;;1.38;;
72637;SDS011;60681;50.308;8.972;2022-08-24T03:16:05;1.90;;;1.20;;
72637;SDS011;60681;50.308;8.972;2022-08-24T03:18:32;1.40;;;1.30;;
72637;SDS011;60681;50.308;8.972;2022-08-24T03:20:59;2.45;;;1.42;;
72637;SDS011;60681;50.308;8.972;2022-08-24T03:23:26;3.00;;;1.42;;
72637;SDS011;60681;50.308;8.972;2022-08-24T03:25:52;1.55;;;1.35;;
72637;SDS011;60681;50.308;8.972;2022-08-24T03:28:19;1.98;;;1.83;;
72637;SDS011;60681;50.308;8.972;2022-08-24T03:30:45;1.45;;;1.27;;
72637;SDS011;60681;50.308;8.972;2022-08-24T03:33:11;2.35;;;1.45;;
72637;SDS011;60681;50.308;8.972;2022-08-24T03:35:37;1.67;;;1.23;;
72637;SDS011;60681;50.308;8.972;2022-08-24T03:38:03;2.08;;;1.63;;
72637;SDS011;60681;50.308;8.972;2022-08-24T03:40:30;4.40;;;1.75;;
72637;SDS011;60681;50.308;8.972;2022-08-24T03:42:57;1.30;;;1.20;;
72637;SDS011;60681;50.308;8.972;2022-08-24T03:45:23;2.45;;;1.00;;
72637;SDS011;60681;50.308;8.972;2022-08-24T03:47:49;3.63;;;1.95;;
72637;SDS011;60681;50.308;8.972;2022-08-24T03:50:15;4.25;;;2.10;;
72637;SDS011;60681;50.308;8.972;2022-08-24T03:52:41;1.75;;;1.40;;
72637;SDS011;60681;50.308;8.972;2022-08-24T03:55:07;1.75;;;1.65;;
72637;SDS011;60681;50.308;8.972;2022-08-24T03:57:34;3.20;;;1.13;;
72637;SDS011;60681;50.308;8.972;2022-08-24T04:00:00;4.30;;;1.65;;
72637;SDS011;60681;50.308;8.972;2022-08-24T04:02:26;2.83;;;1.60;;
72637;SDS011;60681;50.308;8.972;2022-08-24T04:04:52;3.92;;;1.20;;
72637;SDS011;60681;50.308;8.972;2022-08-24T04:07:18;2.42;;;2.10;;
72637;SDS011;60681;50.308;8.972;2022-08-24T04:09:45;2.50;;;1.40;;
72637;SDS011;60681;50.308;8.972;2022-08-24T04:12:13;7.80;;;1.55;;
72637;SDS011;60681;50.308;8.972;2022-08-24T04:14:39;5.18;;;1.58;;
72637;SDS011;60681;50.308;8.972;2022-08-24T04:17:06;2.22;;;1.67;;
72637;SDS011;60681;50.308;8.972;2022-08-24T04:19:32;1.95;;;1.23;;
72637;SDS011;60681;50.308;8.972;2022-08-24T04:21:58;3.40;;;1.48;;
72637;SDS011;60681;50.308;8.972;2022-08-24T04:24:25;1.85;;;1.75;;
72637;SDS011;60681;50.308;8.972;2022-08-24T04:26:51;1.88;;;1.65;;
72637;SDS011;60681;50.308;8.972;2022-08-24T04:29:18;1.63;;;1.52;;
72637;SDS011;60681;50.308;8.972;2022-08-24T04:31:45;3.08;;;1.92;;
72637;SDS011;60681;50.308;8.972;2022-08-24T04:34:11;4.20;;;1.45;;
72637;SDS011;60681;50.308;8.972;2022-08-24T04:36:41;2.45;;;1.80;;
72637;SDS011;60681;50.308;8.972;2022-08-24T04:39:08;5.85;;;2.88;;
72637;SDS011;60681;50.308;8.972;2022-08-24T04:41:35;7.72;;;3.20;;
72637;SDS011;60681;50.308;8.972;2022-08-24T04:44:01;4.60;;;3.35;;
72637;SDS011;60681;50.308;8.972;2022-08-24T04:46:28;4.85;;;4.00;;
72637;SDS011;60681;50.308;8.972;2022-08-24T04:48:54;10.48;;;8.25;;
72637;SDS011;60681;50.308;8.972;2022-08-24T04:51:20;18.25;;;12.23;;
72637;SDS011;60681;50.308;8.972;2022-08-24T04:53:47;24.52;;;13.63;;
72637;SDS011;60681;50.308;8.972;2022-08-24T04:56:17;19.23;;;13.68;;
72637;SDS011;60681;50.308;8.972;2022-08-24T04:58:45;20.58;;;14.15;;
72637;SDS011;60681;50.308;8.972;2022-08-24T05:01:15;18.90;;;12.50;;
72637;SDS011;60681;50.308;8.972;2022-08-24T05:03:43;15.88;;;11.23;;
72637;SDS011;60681;50.308;8.972;2022-08-24T05:06:10;23.90;;;10.40;;
72637;SDS011;60681;50.308;8.972;2022-08-24T05:11:04;18.58;;;8.93;;
72637;SDS011;60681;50.308;8.972;2022-08-24T05:13:33;14.45;;;7.85;;
72637;SDS011;60681;50.308;8.972;2022-08-24T05:15:59;13.43;;;7.13;;
72637;SDS011;60681;50.308;8.972;2022-08-24T05:18:25;12.70;;;7.70;;
72637;SDS011;60681;50.308;8.972;2022-08-24T05:20:54;14.60;;;7.68;;
72637;SDS011;60681;50.308;8.972;2022-08-24T05:23:20;16.75;;;7.28;;
72637;SDS011;60681;50.308;8.972;2022-08-24T05:25:47;8.73;;;6.82;;
72637;SDS011;60681;50.308;8.972;2022-08-24T05:28:13;9.25;;;5.75;;
72637;SDS011;60681;50.308;8.972;2022-08-24T05:30:40;10.40;;;6.03;;
72637;SDS011;60681;50.308;8.972;2022-08-24T05:33:06;6.68;;;5.50;;
72637;SDS011;60681;50.308;8.972;2022-08-24T05:35:39;8.15;;;5.25;;
72637;SDS011;60681;50.308;8.972;2022-08-24T05:38:05;9.25;;;3.72;;
72637;SDS011;60681;50.308;8.972;2022-08-24T05:40:31;5.53;;;4.05;;
72637;SDS011;60681;50.308;8.972;2022-08-24T05:42:57;5.85;;;3.15;;
72637;SDS011;60681;50.308;8.972;2022-08-24T05:45:23;2.17;;;1.98;;
72637;SDS011;60681;50.308;8.972;2022-08-24T05:47:49;4.10;;;1.60;;
72637;SDS011;60681;50.308;8.972;2022-08-24T05:50:15;2.10;;;1.40;;
72637;SDS011;60681;50.308;8.972;2022-08-24T05:52:41;2.10;;;1.83;;
72637;SDS011;60681;50.308;8.972;2022-08-24T05:55:07;1.92;;;1.50;;
72637;SDS011;60681;50.308;8.972;2022-08-24T05:57:34;6.20;;;1.75;;
72637;SDS011;60681;50.308;8.972;2022-08-24T06:00:01;5.65;;;1.77;;
72637;SDS011;60681;50.308;8.972;2022-08-24T06:02:27;4.30;;;1.38;;
72637;SDS011;60681;50.308;8.972;2022-08-24T06:04:53;18.27;;;1.55;;
72637;SDS011;60681;50.308;8.972;2022-08-24T06:07:20;1.85;;;1.23;;
72637;SDS011;60681;50.308;8.972;2022-08-24T06:09:46;1.90;;;1.27;;
72637;SDS011;60681;50.308;8.972;2022-08-24T06:12:12;3.67;;;0.98;;
72637;SDS011;60681;50.308;8.972;2022-08-24T06:14:38;2.03;;;1.20;;
72637;SDS011;60681;50.308;8.972;2022-08-24T06:17:05;1.23;;;0.88;;
72637;SDS011;60681;50.308;8.972;2022-08-24T06:19:31;3.38;;;1.02;;
72637;SDS011;60681;50.308;8.972;2022-08-24T06:21:57;8.18;;;1.10;;
72637;SDS011;60681;50.308;8.972;2022-08-24T06:24:24;0.90;;;0.73;;
72637;SDS011;60681;50.308;8.972;2022-08-24T06:27:10;3.55;;;1.17;;
72637;SDS011;60681;50.308;8.972;2022-08-24T06:29:45;4.72;;;1.17;;
72637;SDS011;60681;50.308;8.972;2022-08-24T06:32:11;5.37;;;1.43;;
72637;SDS011;60681;50.308;8.972;2022-08-24T06:34:37;5.00;;;1.63;;
72637;SDS011;60681;50.308;8.972;2022-08-24T06:37:03;1.70;;;1.48;;
72637;SDS011;60681;50.308;8.972;2022-08-24T06:39:29;1.17;;;1.02;;
72637;SDS011;60681;50.308;8.972;2022-08-24T06:41:55;3.45;;;0.98;;
72637;SDS011;60681;50.308;8.972;2022-08-24T06:44:21;2.45;;;1.08;;
72637;SDS011;60681;50.308;8.972;2022-08-24T06:46:47;1.45;;;1.25;;
72637;SDS011;60681;50.308;8.972;2022-08-24T06:49:13;2.67;;;1.00;;
72637;SDS011;60681;50.308;8.972;2022-08-24T06:51:39;5.95;;;1.40;;
72637;SDS011;60681;50.308;8.972;2022-08-24T06:54:05;1.17;;;1.05;;
72637;SDS011;60681;50.308;8.972;2022-08-24T06:56:31;0.90;;;0.88;;
72637;SDS011;60681;50.308;8.972;2022-08-24T06:58:59;8.02;;;1.45;;
72637;SDS011;60681;50.308;8.972;2022-08-24T07:01:27;1.38;;;1.25;;
72637;SDS011;60681;50.308;8.972;2022-08-24T07:03:53;1.30;;;1.20;;
72637;SDS011;60681;50.308;8.972;2022-08-24T07:06:20;7.93;;;1.73;;
72637;SDS011;60681;50.308;8.972;2022-08-24T07:08:46;4.47;;;1.50;;
72637;SDS011;60681;50.308;8.972;2022-08-24T07:11:13;3.60;;;1.17;;
72637;SDS011;60681;50.308;8.972;2022-08-24T07:13:40;1.45;;;1.20;;
72637;SDS011;60681;50.308;8.972;2022-08-24T07:16:06;3.60;;;1.20;;
72637;SDS011;60681;50.308;8.972;2022-08-24T07:18:33;1.08;;;1.00;;
72637;SDS011;60681;50.308;8.972;2022-08-24T07:21:00;6.47;;;1.33;;
72637;SDS011;60681;50.308;8.972;2022-08-24T07:23:26;2.22;;;0.95;;
72637;SDS011;60681;50.308;8.972;2022-08-24T07:25:53;1.67;;;0.93;;
72637;SDS011;60681;50.308;8.972;2022-08-24T07:28:19;6.00;;;1.10;;
72637;SDS011;60681;50.308;8.972;2022-08-24T07:30:45;4.55;;;1.67;;
72637;SDS011;60681;50.308;8.972;2022-08-24T07:33:11;3.35;;;1.25;;
72637;SDS011;60681;50.308;8.972;2022-08-24T07:35:38;4.30;;;1.05;;
72637;SDS011;60681;50.308;8.972;2022-08-24T07:38:05;1.30;;;1.20;;
72637;SDS011;60681;50.308;8.972;2022-08-24T07:40:31;2.03;;;1.63;;
72637;SDS011;60681;50.308;8.972;2022-08-24T07:42:57;7.97;;;1.10;;
72637;SDS011;60681;50.308;8.972;2022-08-24T07:45:23;2.25;;;1.17;;
72637;SDS011;60681;50.308;8.972;2022-08-24T07:47:50;3.80;;;1.00;;
72637;SDS011;60681;50.308;8.972;2022-08-24T07:50:17;13.15;;;1.35;;
72637;SDS011;60681;50.308;8.972;2022-08-24T07:52:43;6.90;;;1.30;;
72637;SDS011;60681;50.308;8.972;2022-08-24T07:55:10;1.77;;;0.85;;
72637;SDS011;60681;50.308;8.972;2022-08-24T07:57:36;0.98;;;0.98;;
72637;SDS011;60681;50.308;8.972;2022-08-24T08:00:03;8.27;;;1.42;;
72637;SDS011;60681;50.308;8.972;2022-08-24T08:02:31;4.82;;;1.40;;
72637;SDS011;60681;50.308;8.972;2022-08-24T08:04:57;5.00;;;1.27;;
72637;SDS011;60681;50.308;8.972;2022-08-24T08:07:23;2.90;;;1.60;;
72637;SDS011;60681;50.308;8.972;2022-08-24T08:09:50;8.75;;;1.25;;
72637;SDS011;60681;50.308;8.972;2022-08-24T08:12:16;4.47;;;1.13;;
72637;SDS011;60681;50.308;8.972;2022-08-24T08:14:43;3.10;;;1.05;;
72637;SDS011;60681;50.308;8.972;2022-08-24T08:17:09;9.95;;;1.10;;
72637;SDS011;60681;50.308;8.972;2022-08-24T08:19:35;2.58;;;1.25;;
72637;SDS011;60681;50.308;8.972;2022-08-24T08:22:01;4.85;;;1.00;;
72637;SDS011;60681;50.308;8.972;2022-08-24T08:24:46;2.40;;;1.10;;
72637;SDS011;60681;50.308;8.972;2022-08-24T08:27:12;4.43;;;1.15;;
72637;SDS011;60681;50.308;8.972;2022-08-24T08:29:42;3.35;;;1.38;;
72637;SDS011;60681;50.308;8.972;2022-08-24T08:32:09;1.70;;;1.10;;
72637;SDS011;60681;50.308;8.972;2022-08-24T08:34:36;3.63;;;1.27;;
72637;SDS011;60681;50.308;8.972;2022-08-24T08:37:02;4.63;;;1.45;;
72637;SDS011;60681;50.308;8.972;2022-08-24T08:39:29;3.13;;;1.00;;
72637;SDS011;60681;50.308;8.972;2022-08-24T09:11:13;2.17;;;1.20;;
72637;SDS011;60681;50.308;8.972;2022-08-24T09:23:51;6.15;;;1.30;;
72637;SDS011;60681;50.308;8.972;2022-08-24T09:29:14;2.22;;;1.33;;
72637;SDS011;60681;50.308;8.972;2022-08-24T09:36:52;1.75;;;1.40;;
72637;SDS011;60681;50.308;8.972;2022-08-24T09:55:48;1.80;;;0.88;;
72637;SDS011;60681;50.308;8.972;2022-08-24T10:00:27;2.10;;;1.52;;
72637;SDS011;60681;50.308;8.972;2022-08-24T10:02:58;2.50;;;0.85;;
72637;SDS011;60681;50.308;8.972;2022-08-24T10:10:50;3.80;;;1.10;;
72637;SDS011;60681;50.308;8.972;2022-08-24T10:26:26;1.40;;;1.05;;
72637;SDS011;60681;50.308;8.972;2022-08-24T10:29:11;3.70;;;1.23;;
72637;SDS011;60681;50.308;8.972;2022-08-24T10:39:19;1.90;;;0.90;;
72637;SDS011;60681;50.308;8.972;2022-08-24T10:48:07;4.75;;;0.88;;
72637;SDS011;60681;50.308;8.972;2022-08-24T10:55:39;1.80;;;0.70;;
72637;SDS011;60681;50.308;8.972;2022-08-24T11:00:37;2.92;;;0.90;;
72637;SDS011;60681;50.308;8.972;2022-08-24T11:05:37;1.85;;;1.13;;
72637;SDS011;60681;50.308;8.972;2022-08-24T11:08:05;4.70;;;1.48;;
72637;SDS011;60681;50.308;8.972;2022-08-24T11:10:33;9.27;;;1.27;;
72637;SDS011;60681;50.308;8.972;2022-08-24T11:13:13;8.20;;;1.00;;
72637;SDS011;60681;50.308;8.972;2022-08-24T11:15:47;1.95;;;1.00;;
72637;SDS011;60681;50.308;8.972;2022-08-24T11:18:15;1.98;;;0.80;;
72637;SDS011;60681;50.308;8.972;2022-08-24T11:20:42;2.57;;;0.87;;
72637;SDS011;60681;50.308;8.972;2022-08-24T11:23:21;2.58;;;1.40;;
72637;SDS011;60681;50.308;8.972;2022-08-24T11:25:58;1.33;;;1.05;;
72637;SDS011;60681;50.308;8.972;2022-08-24T11:31:12;7.07;;;1.13;;
72637;SDS011;60681;50.308;8.972;2022-08-24T11:33:49;1.38;;;0.98;;
72637;SDS011;60681;50.308;8.972;2022-08-24T11:36:21;2.35;;;1.00;;
72637;SDS011;60681;50.308;8.972;2022-08-24T11:38:47;0.88;;;0.85;;
72637;SDS011;60681;50.308;8.972;2022-08-24T11:41:25;7.03;;;1.30;;
72637;SDS011;60681;50.308;8.972;2022-08-24T11:52:02;2.67;;;1.15;;
72637;SDS011;60681;50.308;8.972;2022-08-24T11:54:49;2.35;;;1.00;;
72637;SDS011;60681;50.308;8.972;2022-08-24T11:57:39;1.40;;;1.00;;
72637;SDS011;60681;50.308;8.972;2022-08-24T12:00:11;4.07;;;1.08;;
72637;SDS011;60681;50.308;8.972;2022-08-24T12:05:30;5.78;;;0.90;;
72637;SDS011;60681;50.308;8.972;2022-08-24T12:08:02;2.55;;;1.38;;
72637;SDS011;60681;50.308;8.972;2022-08-24T12:13:07;3.53;;;0.93;;
72637;SDS011;60681;50.308;8.972;2022-08-24T12:15:44;2.45;;;1.20;;
72637;SDS011;60681;50.308;8.972;2022-08-24T12:20:56;4.30;;;1.40;;
72637;SDS011;60681;50.308;8.972;2022-08-24T12:23:28;2.40;;;1.30;;
72637;SDS011;60681;50.308;8.972;2022-08-24T12:25:58;3.65;;;1.08;;
72637;SDS011;60681;50.308;8.972;2022-08-24T12:28:39;3.30;;;1.75;;
72637;SDS011;60681;50.308;8.972;2022-08-24T12:33:32;3.25;;;1.02;;
72637;SDS011;60681;50.308;8.972;2022-08-24T12:36:02;9.02;;;1.50;;
72637;SDS011;60681;50.308;8.972;2022-08-24T12:38:37;1.92;;;0.93;;
72637;SDS011;60681;50.308;8.972;2022-08-24T12:41:06;1.40;;;1.30;;
72637;SDS011;60681;50.308;8.972;2022-08-24T12:43:44;8.32;;;1.30;;
72637;SDS011;60681;50.308;8.972;2022-08-24T12:46:12;2.25;;;1.00;;
72637;SDS011;60681;50.308;8.972;2022-08-24T12:52:07;2.05;;;1.30;;
72637;SDS011;60681;50.308;8.972;2022-08-24T13:05:04;5.82;;;1.00;;
72637;SDS011;60681;50.308;8.972;2022-08-24T13:17:40;0.90;;;0.90;;
72637;SDS011;60681;50.308;8.972;2022-08-24T13:20:17;2.75;;;1.15;;
72637;SDS011;60681;50.308;8.972;2022-08-24T13:25:50;9.73;;;1.60;;
72637;SDS011;60681;50.308;8.972;2022-08-24T13:36:39;6.85;;;1.38;;
72637;SDS011;60681;50.308;8.972;2022-08-24T13:38:53;1.48;;;0.70;;
72637;SDS011;60681;50.308;8.972;2022-08-24T13:44:06;2.67;;;1.55;;
72637;SDS011;60681;50.308;8.972;2022-08-24T13:46:45;1.25;;;0.75;;
72637;SDS011;60681;50.308;8.972;2022-08-24T13:52:03;1.10;;;1.00;;
72637;SDS011;60681;50.308;8.972;2022-08-24T14:02:29;2.80;;;1.15;;
72637;SDS011;60681;50.308;8.972;2022-08-24T14:12:48;2.78;;;1.17;;
72637;SDS011;60681;50.308;8.972;2022-08-24T14:15:18;3.65;;;0.80;;
72637;SDS011;60681;50.308;8.972;2022-08-24T14:25:33;1.20;;;1.10;;
72637;SDS011;60681;50.308;8.972;2022-08-24T14:46:12;3.90;;;0.97;;
72637;SDS011;60681;50.308;8.972;2022-08-24T14:59:36;4.95;;;1.35;;
72637;SDS011;60681;50.308;8.972;2022-08-24T15:09:47;2.10;;;0.75;;
72637;SDS011;60681;50.308;8.972;2022-08-24T15:12:29;2.17;;;0.80;;
72637;SDS011;60681;50.308;8.972;2022-08-24T15:15:06;5.22;;;0.95;;
72637;SDS011;60681;50.308;8.972;2022-08-24T15:17:46;4.82;;;1.27;;
72637;SDS011;60681;50.308;8.972;2022-08-24T15:23:02;3.92;;;1.10;;
72637;SDS011;60681;50.308;8.972;2022-08-24T15:27:55;0.80;;;0.73;;
72637;SDS011;60681;50.308;8.972;2022-08-24T15:30:24;1.55;;;1.00;;
72637;SDS011;60681;50.308;8.972;2022-08-24T15:35:31;5.97;;;1.15;;
72637;SDS011;60681;50.308;8.972;2022-08-24T15:38:14;7.75;;;1.17;;
72637;SDS011;60681;50.308;8.972;2022-08-24T15:40:41;2.35;;;1.30;;
72637;SDS011;60681;50.308;8.972;2022-08-24T15:43:07;2.15;;;1.10;;
72637;SDS011;60681;50.308;8.972;2022-08-24T15:45:34;1.20;;;0.88;;
72637;SDS011;60681;50.308;8.972;2022-08-24T15:48:01;1.40;;;0.93;;
72637;SDS011;60681;50.308;8.972;2022-08-24T15:50:39;2.08;;;1.10;;
72637;SDS011;60681;50.308;8.972;2022-08-24T15:53:23;0.85;;;0.70;;
72637;SDS011;60681;50.308;8.972;2022-08-24T15:55:49;3.25;;;0.88;;
72637;SDS011;60681;50.308;8.972;2022-08-24T16:01:01;3.13;;;1.05;;
72637;SDS011;60681;50.308;8.972;2022-08-24T16:04:06;0.90;;;0.90;;
72637;SDS011;60681;50.308;8.972;2022-08-24T16:13:56;4.90;;;0.95;;
72637;SDS011;60681;50.308;8.972;2022-08-24T16:16:34;1.25;;;0.88;;
72637;SDS011;60681;50.308;8.972;2022-08-24T16:19:00;5.47;;;0.95;;
72637;SDS011;60681;50.308;8.972;2022-08-24T16:21:28;5.17;;;1.33;;
72637;SDS011;60681;50.308;8.972;2022-08-24T16:23:57;0.80;;;0.80;;
72637;SDS011;60681;50.308;8.972;2022-08-24T16:26:28;0.70;;;0.70;;
72637;SDS011;60681;50.308;8.972;2022-08-24T16:28:55;3.78;;;1.02;;
72637;SDS011;60681;50.308;8.972;2022-08-24T16:34:16;2.47;;;1.10;;
72637;SDS011;60681;50.308;8.972;2022-08-24T16:36:43;1.20;;;0.90;;
72637;SDS011;60681;50.308;8.972;2022-08-24T16:39:09;2.33;;;1.00;;
72637;SDS011;60681;50.308;8.972;2022-08-24T16:41:36;3.45;;;0.85;;
72637;SDS011;60681;50.308;8.972;2022-08-24T16:44:04;1.55;;;1.02;;
72637;SDS011;60681;50.308;8.972;2022-08-24T16:46:30;2.05;;;1.00;;
72637;SDS011;60681;50.308;8.972;2022-08-24T16:48:56;4.78;;;1.05;;
72637;SDS011;60681;50.308;8.972;2022-08-24T16:51:23;3.22;;;1.00;;
72637;SDS011;60681;50.308;8.972;2022-08-24T16:53:52;6.20;;;1.05;;
72637;SDS011;60681;50.308;8.972;2022-08-24T16:56:18;1.08;;;0.80;;
72637;SDS011;60681;50.308;8.972;2022-08-24T16:58:45;3.35;;;0.80;;
72637;SDS011;60681;50.308;8.972;2022-08-24T17:01:11;3.63;;;1.08;;
72637;SDS011;60681;50.308;8.972;2022-08-24T17:03:38;1.03;;;0.93;;
72637;SDS011;60681;50.308;8.972;2022-08-24T17:06:04;2.53;;;0.98;;
72637;SDS011;60681;50.308;8.972;2022-08-24T17:08:30;3.58;;;0.90;;
72637;SDS011;60681;50.308;8.972;2022-08-24T17:10:57;7.38;;;1.42;;
72637;SDS011;60681;50.308;8.972;2022-08-24T17:13:24;3.70;;;0.97;;
72637;SDS011;60681;50.308;8.972;2022-08-24T17:15:50;3.15;;;1.23;;
72637;SDS011;60681;50.308;8.972;2022-08-24T17:18:16;1.98;;;1.00;;
72637;SDS011;60681;50.308;8.972;2022-08-24T17:20:44;3.13;;;1.35;;
72637;SDS011;60681;50.308;8.972;2022-08-24T17:23:10;6.18;;;2.03;;
72637;SDS011;60681;50.308;8.972;2022-08-24T17:25:36;3.22;;;1.50;;
72637;SDS011;60681;50.308;8.972;2022-08-24T17:28:06;1.17;;;0.90;;
72637;SDS011;60681;50.308;8.972;2022-08-24T17:30:32;6.20;;;1.10;;
72637;SDS011;60681;50.308;8.972;2022-08-24T17:32:59;1.60;;;1.13;;
72637;SDS011;60681;50.308;8.972;2022-08-24T17:35:25;4.22;;;1.00;;
72637;SDS011;60681;50.308;8.972;2022-08-24T17:37:51;2.25;;;1.35;;
72637;SDS011;60681;50.308;8.972;2022-08-24T17:40:20;1.45;;;1.10;;
72637;SDS011;60681;50.308;8.972;2022-08-24T17:42:48;5.15;;;1.58;;
72637;SDS011;60681;50.308;8.972;2022-08-24T17:45:14;3.05;;;0.80;;
72637;SDS011;60681;50.308;8.972;2022-08-24T17:47:41;3.60;;;0.98;;
72637;SDS011;60681;50.308;8.972;2022-08-24T17:50:07;6.95;;;1.15;;
72637;SDS011;60681;50.308;8.972;2022-08-24T17:52:34;0.85;;;0.63;;
72637;SDS011;60681;50.308;8.972;2022-08-24T17:55:01;4.13;;;1.25;;
72637;SDS011;60681;50.308;8.972;2022-08-24T17:57:27;2.95;;;0.95;;
72637;SDS011;60681;50.308;8.972;2022-08-24T17:59:53;5.85;;;1.08;;
72637;SDS011;60681;50.308;8.972;2022-08-24T18:02:21;4.18;;;1.13;;
72637;SDS011;60681;50.308;8.972;2022-08-24T18:04:47;4.13;;;1.02;;
72637;SDS011;60681;50.308;8.972;2022-08-24T18:07:15;3.35;;;1.05;;
72637;SDS011;60681;50.308;8.972;2022-08-24T18:09:43;1.25;;;1.10;;
72637;SDS011;60681;50.308;8.972;2022-08-24T18:12:11;13.18;;;1.55;;
72637;SDS011;60681;50.308;8.972;2022-08-24T18:14:38;7.95;;;1.00;;
72637;SDS011;60681;50.308;8.972;2022-08-24T18:17:04;2.53;;;0.82;;
72637;SDS011;60681;50.308;8.972;2022-08-24T18:19:31;1.33;;;1.08;;
72637;SDS011;60681;50.308;8.972;2022-08-24T18:21:58;2.50;;;1.08;;
72637;SDS011;60681;50.308;8.972;2022-08-24T18:24:25;4.57;;;1.33;;
72637;SDS011;60681;50.308;8.972;2022-08-24T18:26:56;3.15;;;1.42;;
72637;SDS011;60681;50.308;8.972;2022-08-24T18:29:24;1.25;;;1.15;;
72637;SDS011;60681;50.308;8.972;2022-08-24T18:31:50;2.95;;;1.10;;
72637;SDS011;60681;50.308;8.972;2022-08-24T18:34:19;1.42;;;1.20;;
72637;SDS011;60681;50.308;8.972;2022-08-24T18:36:46;2.60;;;0.95;;
72637;SDS011;60681;50.308;8.972;2022-08-24T18:39:12;1.48;;;1.25;;
72637;SDS011;60681;50.308;8.972;2022-08-24T18:41:38;1.65;;;1.40;;
72637;SDS011;60681;50.308;8.972;2022-08-24T18:44:05;1.95;;;1.30;;
72637;SDS011;60681;50.308;8.972;2022-08-24T18:46:38;2.35;;;1.50;;
72637;SDS011;60681;50.308;8.972;2022-08-24T18:49:04;3.17;;;1.35;;
72637;SDS011;60681;50.308;8.972;2022-08-24T18:51:32;2.40;;;1.88;;
72637;SDS011;60681;50.308;8.972;2022-08-24T18:54:02;2.45;;;1.65;;
72637;SDS011;60681;50.308;8.972;2022-08-24T18:56:29;2.20;;;1.55;;
72637;SDS011;60681;50.308;8.972;2022-08-24T18:58:55;4.00;;;1.55;;
72637;SDS011;60681;50.308;8.972;2022-08-24T19:01:22;4.93;;;1.85;;
72637;SDS011;60681;50.308;8.972;2022-08-24T19:03:48;9.50;;;2.20;;
72637;SDS011;60681;50.308;8.972;2022-08-24T19:06:14;4.30;;;1.98;;
72637;SDS011;60681;50.308;8.972;2022-08-24T19:08:40;3.63;;;1.77;;
72637;SDS011;60681;50.308;8.972;2022-08-24T19:11:08;3.53;;;1.52;;
72637;SDS011;60681;50.308;8.972;2022-08-24T19:13:35;3.75;;;1.95;;